Time;durP1;ratioP1;P1;durP2;ratioP2;P2;SDS_P1;SDS_P2;PMS_P1;PMS_P2;Temp;Humidity;BMP_temperature;BMP_pressure;BME280_temperature;BME280_humidity;BME280_pressure;Samples;Min_cycle;Max_cycle;Signal;HPM_P1;HPM_P2
2023/07/20 00:01:19;;;;;;;9.60;3.77;;;22.90;94.10;;;;;;5041567;28;20203;-64
2023/07/20 00:03:54;;;;;;;5.97;3.40;;;22.90;94.20;;;;;;5042554;28;20609;-64
2023/07/20 00:06:27;;;;;;;9.43;5.03;;;22.90;94.00;;;;;;5041943;28;20194;-64
2023/07/20 00:08:55;;;;;;;7.47;4.00;;;22.80;93.40;;;;;;5045021;28;20223;-65
2023/07/20 00:11:26;;;;;;;8.17;3.67;;;22.80;93.50;;;;;;5039029;28;20199;-66
2023/07/20 00:13:53;;;;;;;15.13;4.07;;;22.70;93.00;;;;;;5041873;28;20282;-64
2023/07/20 00:16:20;;;;;;;12.20;4.67;;;22.70;93.30;;;;;;5052780;28;20620;-64
2023/07/20 00:18:50;;;;;;;17.33;4.63;;;22.70;93.70;;;;;;5042692;28;20717;-64
2023/07/20 00:21:17;;;;;;;9.10;4.30;;;22.70;93.90;;;;;;5043380;28;20195;-64
2023/07/20 00:23:44;;;;;;;7.97;4.77;;;22.70;93.90;;;;;;5045965;28;20637;-64
2023/07/20 00:26:11;;;;;;;5.43;4.20;;;22.70;93.90;;;;;;5041343;28;20231;-64
2023/07/20 00:28:38;;;;;;;16.23;5.00;;;22.70;94.00;;;;;;5039832;28;20203;-64
2023/07/20 00:31:05;;;;;;;7.00;3.90;;;22.70;94.10;;;;;;5048498;28;20265;-64
2023/07/20 00:33:32;;;;;;;8.53;4.83;;;22.70;94.20;;;;;;5039274;28;20211;-64
2023/07/20 00:35:59;;;;;;;7.87;4.60;;;22.80;94.20;;;;;;5049286;28;20648;-64
2023/07/20 00:38:26;;;;;;;7.10;4.47;;;22.80;94.10;;;;;;5043987;28;20225;-64
2023/07/20 00:40:53;;;;;;;8.37;4.93;;;22.80;93.80;;;;;;5043685;28;20205;-64
2023/07/20 00:43:20;;;;;;;7.60;4.80;;;22.80;93.80;;;;;;5044911;28;20213;-67
2023/07/20 00:45:48;;;;;;;8.30;4.20;;;22.70;93.60;;;;;;5043813;28;20582;-64
2023/07/20 00:48:15;;;;;;;10.77;5.53;;;22.70;93.50;;;;;;5037497;28;20199;-64
2023/07/20 00:50:43;;;;;;;10.80;5.60;;;22.70;93.60;;;;;;5048125;28;20695;-64
2023/07/20 00:53:10;;;;;;;9.57;4.53;;;22.60;93.60;;;;;;5042242;28;20203;-64
2023/07/20 00:55:37;;;;;;;7.40;4.27;;;22.60;93.60;;;;;;5040140;28;20644;-64
2023/07/20 00:58:04;;;;;;;8.97;5.07;;;22.60;93.50;;;;;;5043326;28;20246;-64
2023/07/20 01:00:31;;;;;;;9.17;5.20;;;22.60;93.50;;;;;;5042939;28;20208;-64
2023/07/20 01:02:58;;;;;;;9.30;5.37;;;22.60;93.50;;;;;;5042611;28;20685;-64
2023/07/20 01:05:43;;;;;;;8.93;4.80;;;22.50;93.60;;;;;;5043544;28;20290;-64
2023/07/20 01:08:28;;;;;;;8.43;4.87;;;22.60;93.80;;;;;;5037756;28;20636;-64
2023/07/20 01:11:32;;;;;;;9.80;4.83;;;22.60;93.90;;;;;;5048425;28;20195;-64
2023/07/20 01:13:59;;;;;;;7.33;4.07;;;22.60;94.00;;;;;;5040694;28;20725;-64
2023/07/20 01:16:28;;;;;;;10.03;4.03;;;22.60;93.70;;;;;;5040781;28;20206;-64
2023/07/20 01:18:55;;;;;;;5.97;4.20;;;22.60;93.40;;;;;;5040210;28;20223;-64
2023/07/20 01:21:31;;;;;;;12.87;4.60;;;22.60;93.00;;;;;;5043905;28;20226;-64
2023/07/20 01:24:19;;;;;;;18.20;6.33;;;22.60;93.10;;;;;;5037288;28;20272;-64
2023/07/20 01:27:14;;;;;;;8.37;4.77;;;22.60;93.20;;;;;;5036752;28;20322;-64
2023/07/20 01:30:04;;;;;;;11.03;5.60;;;22.60;93.30;;;;;;5046814;28;20674;-64
2023/07/20 01:32:33;;;;;;;8.70;5.43;;;22.60;93.50;;;;;;5045756;28;20225;-63
2023/07/20 01:35:02;;;;;;;9.00;5.00;;;22.60;93.60;;;;;;5043696;28;20614;-64
2023/07/20 01:37:31;;;;;;;11.77;5.27;;;22.60;93.70;;;;;;5041979;28;20204;-64
2023/07/20 01:39:59;;;;;;;9.43;4.77;;;22.60;93.70;;;;;;5040769;28;20199;-64
2023/07/20 01:42:26;;;;;;;6.37;4.77;;;22.60;93.60;;;;;;5042884;28;20281;-64
2023/07/20 01:44:53;;;;;;;11.20;5.40;;;22.70;93.30;;;;;;5047948;28;20633;-64
2023/07/20 01:47:23;;;;;;;11.93;6.07;;;22.70;93.10;;;;;;5043527;28;20207;-64
2023/07/20 01:49:50;;;;;;;7.87;4.67;;;22.70;93.10;;;;;;5040317;28;20206;-64
2023/07/20 01:52:17;;;;;;;8.30;5.40;;;22.70;93.10;;;;;;5039404;28;20227;-64
2023/07/20 01:54:44;;;;;;;7.60;5.10;;;22.60;92.90;;;;;;5039367;28;20615;-64
2023/07/20 01:57:11;;;;;;;11.17;5.60;;;22.70;93.10;;;;;;5041601;28;20282;-65
2023/07/20 01:59:38;;;;;;;11.30;6.73;;;22.70;93.10;;;;;;5041475;28;20215;-65
2023/07/20 02:02:06;;;;;;;14.73;6.97;;;22.70;93.20;;;;;;5046925;28;20206;-64
2023/07/20 02:04:33;;;;;;;9.40;6.23;;;22.70;93.50;;;;;;5043288;28;20635;-64
2023/07/20 02:07:00;;;;;;;8.57;6.27;;;22.70;93.60;;;;;;5046303;28;20257;-64
2023/07/20 02:09:27;;;;;;;10.13;6.97;;;22.80;93.70;;;;;;5047131;28;20195;-64
2023/07/20 02:11:54;;;;;;;11.27;7.27;;;22.80;93.90;;;;;;5039279;28;20202;-64
2023/07/20 02:14:22;;;;;;;11.53;7.53;;;22.80;94.10;;;;;;5038263;28;20296;-64
2023/07/20 02:16:53;;;;;;;14.43;7.33;;;22.80;94.20;;;;;;5045666;28;20203;-64
2023/07/20 02:19:21;;;;;;;18.73;7.90;;;22.90;94.40;;;;;;5044989;28;20657;-65
2023/07/20 02:21:48;;;;;;;16.00;8.90;;;22.90;94.60;;;;;;5041343;28;20198;-64
2023/07/20 02:24:15;;;;;;;12.37;8.67;;;23.00;94.80;;;;;;5042889;28;20221;-64
2023/07/20 02:26:44;;;;;;;17.30;7.93;;;23.00;94.70;;;;;;5047423;28;20254;-64
2023/07/20 02:29:11;;;;;;;14.60;8.63;;;23.10;94.70;;;;;;5038156;28;20203;-64
2023/07/20 02:31:42;;;;;;;17.77;8.17;;;23.10;94.70;;;;;;5040067;28;20232;-64
2023/07/20 02:34:10;;;;;;;12.03;8.43;;;23.20;94.90;;;;;;5049823;28;20206;-65
2023/07/20 02:36:37;;;;;;;12.07;8.23;;;23.20;94.90;;;;;;5039346;28;20628;-65
2023/07/20 02:39:04;;;;;;;13.10;9.00;;;23.20;94.90;;;;;;5035815;28;20222;-64
2023/07/20 02:41:33;;;;;;;13.27;8.67;;;23.20;94.90;;;;;;5037925;28;20204;-64
2023/07/20 02:44:01;;;;;;;14.60;8.87;;;23.20;95.00;;;;;;5040335;28;20191;-64
2023/07/20 02:46:30;;;;;;;17.40;9.20;;;23.30;95.20;;;;;;5047400;28;20636;-64
2023/07/20 02:48:58;;;;;;;11.97;8.07;;;23.40;95.30;;;;;;5040987;28;20694;-64
2023/07/20 02:51:25;;;;;;;16.37;9.73;;;23.30;95.40;;;;;;5040956;28;20290;-65
2023/07/20 02:53:52;;;;;;;16.13;8.23;;;23.30;95.00;;;;;;5046178;28;20203;-64
2023/07/20 02:56:19;;;;;;;9.33;7.77;;;23.40;95.10;;;;;;5038943;28;20222;-64
2023/07/20 02:58:46;;;;;;;18.10;9.03;;;23.30;94.90;;;;;;5037592;28;20220;-64
2023/07/20 03:01:15;;;;;;;13.30;8.63;;;23.30;94.70;;;;;;5040008;28;20226;-64
2023/07/20 03:03:46;;;;;;;15.03;9.33;;;23.30;94.90;;;;;;5045071;28;20238;-64
2023/07/20 03:06:14;;;;;;;15.60;8.67;;;23.20;94.90;;;;;;5051418;28;20677;-64
2023/07/20 03:08:47;;;;;;;15.00;8.90;;;23.20;95.00;;;;;;5044033;28;20302;-64
2023/07/20 03:11:15;;;;;;;15.53;10.13;;;23.30;95.10;;;;;;5044257;28;20190;-64
2023/07/20 03:13:42;;;;;;;15.30;9.13;;;23.30;95.20;;;;;;5042907;28;20203;-64
2023/07/20 03:16:17;;;;;;;11.17;9.00;;;23.30;95.20;;;;;;5043013;28;20289;-64
2023/07/20 03:18:44;;;;;;;10.43;9.17;;;23.30;95.10;;;;;;5046221;28;20215;-65
2023/07/20 03:21:12;;;;;;;13.30;9.53;;;23.30;95.10;;;;;;5035625;28;20846;-64
2023/07/20 03:23:40;;;;;;;14.77;9.47;;;23.30;95.20;;;;;;5048914;28;20266;-65
2023/07/20 03:26:08;;;;;;;15.63;10.37;;;23.40;95.20;;;;;;5046646;28;20273;-64
2023/07/20 03:28:36;;;;;;;17.77;9.73;;;23.40;95.30;;;;;;5045820;28;20213;-64
2023/07/20 03:31:03;;;;;;;14.03;9.90;;;23.50;95.50;;;;;;5042515;28;20655;-65
2023/07/20 03:33:34;;;;;;;17.03;9.97;;;23.50;95.50;;;;;;5042839;28;20263;-65
2023/07/20 03:36:01;;;;;;;14.23;9.57;;;23.50;95.50;;;;;;5038730;28;20291;-65
2023/07/20 03:38:29;;;;;;;14.13;9.13;;;23.50;95.50;;;;;;5044557;28;20214;-65
2023/07/20 03:40:58;;;;;;;17.20;9.57;;;23.60;95.50;;;;;;5046477;28;20269;-67
2023/07/20 03:43:27;;;;;;;14.70;9.77;;;23.60;95.30;;;;;;5039550;28;20495;-65
2023/07/20 03:45:54;;;;;;;12.87;9.50;;;23.60;95.30;;;;;;5053614;28;20207;-64
2023/07/20 03:48:23;;;;;;;15.10;9.73;;;23.60;95.30;;;;;;5043983;28;20217;-65
2023/07/20 03:50:51;;;;;;;13.77;8.90;;;23.60;95.40;;;;;;5043515;28;20306;-65
2023/07/20 03:53:19;;;;;;;11.23;8.47;;;23.70;95.40;;;;;;5042622;28;20610;-65
2023/07/20 03:55:51;;;;;;;15.93;9.37;;;23.70;95.40;;;;;;5039356;28;20187;-65
2023/07/20 03:58:19;;;;;;;17.83;8.63;;;23.70;95.40;;;;;;5040699;28;20664;-65
2023/07/20 04:00:51;;;;;;;10.70;7.70;;;23.70;95.30;;;;;;5049508;28;20222;-64
2023/07/20 04:03:19;;;;;;;11.77;8.17;;;23.80;95.20;;;;;;5047242;28;20275;-64
2023/07/20 04:05:46;;;;;;;12.07;7.30;;;23.80;95.10;;;;;;5041827;28;20190;-65
2023/07/20 04:08:14;;;;;;;13.70;7.40;;;23.80;94.90;;;;;;5048585;28;20544;-65
2023/07/20 04:10:43;;;;;;;13.47;7.57;;;23.80;94.80;;;;;;5041859;28;20257;-64
2023/07/20 04:13:11;;;;;;;13.13;7.40;;;23.80;94.70;;;;;;5040049;28;20203;-65
2023/07/20 04:15:38;;;;;;;11.33;7.23;;;23.80;94.50;;;;;;5041558;28;20530;-65
2023/07/20 04:18:05;;;;;;;12.13;7.50;;;23.80;94.40;;;;;;5049445;28;20597;-65
2023/07/20 04:20:32;;;;;;;11.70;7.63;;;23.80;94.30;;;;;;5040269;28;20222;-64
2023/07/20 04:23:00;;;;;;;12.63;7.07;;;23.80;94.20;;;;;;5041306;28;20200;-65
2023/07/20 04:25:28;;;;;;;15.40;6.73;;;23.80;93.90;;;;;;5049090;28;20231;-65
2023/07/20 04:27:55;;;;;;;11.50;6.90;;;23.80;93.70;;;;;;5042588;28;20207;-64
2023/07/20 04:30:23;;;;;;;11.50;7.10;;;23.80;93.50;;;;;;5025414;28;20261;-64
2023/07/20 04:32:50;;;;;;;12.53;6.03;;;23.80;93.30;;;;;;5036826;28;20242;-64
2023/07/20 04:35:44;;;;;;;14.50;8.33;;;23.80;93.30;;;;;;5049970;28;20210;-64
2023/07/20 04:38:12;;;;;;;11.10;7.30;;;23.80;93.20;;;;;;5047472;28;20211;-65
2023/07/20 04:40:39;;;;;;;12.77;7.60;;;23.70;93.10;;;;;;5049358;28;20734;-64
2023/07/20 04:43:06;;;;;;;14.23;7.50;;;23.80;93.10;;;;;;5041032;28;20718;-65
2023/07/20 04:45:33;;;;;;;12.63;6.83;;;23.80;93.20;;;;;;5048442;28;20202;-64
2023/07/20 04:48:00;;;;;;;11.23;6.93;;;23.80;93.40;;;;;;5040578;28;20261;-64
2023/07/20 04:50:31;;;;;;;11.50;7.80;;;23.80;93.60;;;;;;5049331;28;20636;-64
2023/07/20 04:52:58;;;;;;;14.40;7.23;;;23.80;93.60;;;;;;5044105;28;20278;-64
2023/07/20 04:55:25;;;;;;;12.30;8.07;;;23.90;93.40;;;;;;5043174;28;20206;-66
2023/07/20 04:57:52;;;;;;;10.17;6.93;;;23.90;93.30;;;;;;5047008;28;20195;-64
2023/07/20 05:00:21;;;;;;;10.23;6.30;;;23.90;93.40;;;;;;5051012;28;20226;-65
2023/07/20 05:02:50;;;;;;;10.13;7.87;;;23.90;92.90;;;;;;5050169;28;20207;-65
2023/07/20 05:05:20;;;;;;;9.83;5.97;;;23.90;92.70;;;;;;5042710;28;20264;-64
2023/07/20 05:07:47;;;;;;;11.67;7.50;;;23.90;92.80;;;;;;5038457;28;20229;-65
2023/07/20 05:10:14;;;;;;;13.10;6.80;;;23.90;93.00;;;;;;5035463;28;20218;-64
2023/07/20 05:12:42;;;;;;;10.40;7.30;;;23.90;93.10;;;;;;5050159;28;20654;-64
2023/07/20 05:15:09;;;;;;;12.13;7.37;;;23.90;93.10;;;;;;5041170;28;20249;-64
2023/07/20 05:17:39;;;;;;;16.20;7.80;;;24.00;93.70;;;;;;5040624;28;20234;-65
2023/07/20 05:20:09;;;;;;;10.63;8.13;;;24.10;93.70;;;;;;5040686;28;20215;-64
2023/07/20 05:22:39;;;;;;;17.40;7.83;;;24.10;93.70;;;;;;5041540;28;20199;-64
2023/07/20 05:25:08;;;;;;;11.00;7.13;;;24.20;93.80;;;;;;5040332;28;20207;-64
2023/07/20 05:27:36;;;;;;;11.73;7.30;;;24.20;93.70;;;;;;5037751;28;20282;-64
2023/07/20 05:30:04;;;;;;;12.40;7.33;;;24.30;93.90;;;;;;5039218;28;20634;-65
2023/07/20 05:32:31;;;;;;;12.03;7.40;;;24.40;93.90;;;;;;5038047;28;20207;-64
2023/07/20 05:34:58;;;;;;;11.70;7.80;;;24.50;93.90;;;;;;5037816;28;20207;-64
2023/07/20 05:37:25;;;;;;;11.83;7.10;;;24.50;93.80;;;;;;5040568;28;20199;-65
2023/07/20 05:39:52;;;;;;;10.73;6.60;;;24.60;93.70;;;;;;5038463;28;20223;-65
2023/07/20 05:42:19;;;;;;;10.10;7.10;;;24.70;93.60;;;;;;5039246;28;20279;-66
2023/07/20 05:44:48;;;;;;;10.00;6.33;;;24.80;93.90;;;;;;5042053;28;20201;-65
2023/07/20 05:47:15;;;;;;;9.87;6.60;;;24.80;93.50;;;;;;5043756;28;20214;-65
2023/07/20 05:49:42;;;;;;;10.50;6.00;;;24.90;93.20;;;;;;5034737;28;20593;-64
2023/07/20 05:52:09;;;;;;;10.50;5.90;;;25.00;93.00;;;;;;5039845;28;20199;-64
2023/07/20 05:54:36;;;;;;;12.27;6.13;;;25.10;92.70;;;;;;5038686;28;20566;-64
2023/07/20 05:57:03;;;;;;;7.80;5.63;;;25.10;92.60;;;;;;5038002;28;20211;-64
2023/07/20 05:59:30;;;;;;;9.87;5.73;;;25.20;92.40;;;;;;5040743;28;20274;-65
2023/07/20 06:01:57;;;;;;;11.63;5.63;;;25.20;92.30;;;;;;5038582;28;20747;-65
2023/07/20 06:04:24;;;;;;;9.83;5.30;;;25.30;92.20;;;;;;5038218;28;20334;-65
2023/07/20 06:06:51;;;;;;;10.77;5.80;;;25.40;92.20;;;;;;5038689;28;20213;-64
2023/07/20 06:09:18;;;;;;;14.53;6.27;;;25.40;92.00;;;;;;5038408;28;20202;-66
2023/07/20 06:11:46;;;;;;;8.63;5.60;;;25.50;91.80;;;;;;5037668;28;20222;-64
2023/07/20 06:14:13;;;;;;;12.63;5.87;;;25.50;91.80;;;;;;5038335;28;20655;-64
2023/07/20 06:16:40;;;;;;;9.60;5.73;;;25.60;92.00;;;;;;5039254;28;20512;-64
2023/07/20 06:19:07;;;;;;;9.40;5.57;;;25.70;91.80;;;;;;5042697;28;20656;-64
2023/07/20 06:21:34;;;;;;;8.07;5.00;;;25.80;91.50;;;;;;5042942;28;20198;-65
2023/07/20 06:24:01;;;;;;;7.83;5.33;;;26.00;91.50;;;;;;5046168;28;20221;-64
2023/07/20 06:26:29;;;;;;;9.33;6.00;;;26.10;91.10;;;;;;5036312;28;20297;-64
2023/07/20 06:28:57;;;;;;;10.80;6.37;;;26.30;90.40;;;;;;5039065;28;20204;-66
2023/07/20 06:31:24;;;;;;;9.30;6.27;;;26.40;88.90;;;;;;5041673;28;20197;-64
2023/07/20 06:33:50;;;;;;;8.07;5.00;;;26.50;89.10;;;;;;5042079;28;20659;-64
2023/07/20 06:36:18;;;;;;;11.77;6.53;;;26.80;89.20;;;;;;5039858;28;20199;-63
2023/07/20 06:38:45;;;;;;;10.87;5.70;;;26.90;88.90;;;;;;5037317;28;20284;-66
2023/07/20 06:41:32;;;;;;;10.67;5.83;;;27.00;88.60;;;;;;5036589;28;20248;-64
2023/07/20 06:44:02;;;;;;;10.27;5.57;;;27.20;88.00;;;;;;5043588;28;20199;-64
2023/07/20 06:46:29;;;;;;;14.17;6.03;;;27.40;86.60;;;;;;5044745;28;20529;-66
2023/07/20 06:48:56;;;;;;;7.83;5.77;;;27.50;86.10;;;;;;5035883;28;20245;-64
2023/07/20 06:51:26;;;;;;;8.73;5.40;;;27.70;85.00;;;;;;5041930;28;20195;-64
2023/07/20 06:53:53;;;;;;;8.90;6.03;;;27.80;85.80;;;;;;5037025;28;20208;-64
2023/07/20 06:56:20;;;;;;;13.23;5.47;;;27.90;85.20;;;;;;5035545;28;20203;-65
2023/07/20 06:58:51;;;;;;;8.83;5.70;;;28.00;84.90;;;;;;5038459;28;20638;-64
2023/07/20 07:01:20;;;;;;;9.77;5.50;;;28.20;84.80;;;;;;5043384;28;20221;-64
2023/07/20 07:03:48;;;;;;;10.90;5.67;;;28.30;84.40;;;;;;5033973;28;20213;-64
2023/07/20 07:06:21;;;;;;;8.47;5.67;;;28.50;83.90;;;;;;5034046;28;20195;-64
2023/07/20 07:08:49;;;;;;;19.07;6.47;;;28.60;83.30;;;;;;5040520;28;20242;-63
2023/07/20 07:11:16;;;;;;;6.77;5.27;;;28.70;81.90;;;;;;5039209;28;20206;-63
2023/07/20 07:13:46;;;;;;;7.50;6.00;;;28.90;81.10;;;;;;5040105;28;20613;-64
2023/07/20 07:16:18;;;;;;;12.83;5.60;;;28.90;81.80;;;;;;5040828;28;20658;-63
2023/07/20 07:18:47;;;;;;;7.43;5.57;;;29.10;81.60;;;;;;5040520;28;20632;-64
2023/07/20 07:21:14;;;;;;;7.90;4.93;;;29.20;80.90;;;;;;5034047;28;20314;-64
2023/07/20 07:23:41;;;;;;;8.90;6.03;;;29.30;80.50;;;;;;5043486;28;20636;-64
2023/07/20 07:26:09;;;;;;;9.70;5.53;;;29.50;80.30;;;;;;5038796;28;20239;-64
2023/07/20 07:28:37;;;;;;;12.90;5.63;;;29.60;79.90;;;;;;5043032;28;20202;-64
2023/07/20 07:31:07;;;;;;;12.10;6.30;;;29.70;79.50;;;;;;5045573;28;20202;-63
2023/07/20 07:33:35;;;;;;;12.73;5.33;;;29.80;78.40;;;;;;5043737;28;20200;-63
2023/07/20 07:36:02;;;;;;;11.43;6.20;;;30.00;78.60;;;;;;5049415;28;20293;-64
2023/07/20 07:38:29;;;;;;;13.60;5.13;;;30.10;78.30;;;;;;5042862;28;20617;-64
2023/07/20 07:41:16;;;;;;;10.23;5.50;;;30.20;77.70;;;;;;5047054;28;20578;-63
2023/07/20 07:43:43;;;;;;;15.60;6.73;;;30.40;76.90;;;;;;5040172;28;20199;-64
2023/07/20 07:46:10;;;;;;;8.37;5.60;;;30.50;76.40;;;;;;5047805;28;20641;-63
2023/07/20 07:48:37;;;;;;;11.23;5.97;;;30.60;76.80;;;;;;5045004;28;20187;-63
2023/07/20 07:51:04;;;;;;;10.67;6.67;;;30.70;75.90;;;;;;5042067;28;20559;-63
2023/07/20 07:53:32;;;;;;;11.60;6.47;;;30.80;74.90;;;;;;5042964;28;20209;-64
2023/07/20 07:55:59;;;;;;;11.07;6.40;;;30.80;73.60;;;;;;5044792;28;20308;-64
2023/07/20 07:58:26;;;;;;;10.37;5.70;;;30.80;73.90;;;;;;5045216;28;20294;-63
2023/07/20 08:00:53;;;;;;;11.70;5.50;;;30.90;74.30;;;;;;5043177;28;20223;-63
2023/07/20 08:03:24;;;;;;;9.03;5.53;;;31.00;73.90;;;;;;5044449;28;20526;-63
2023/07/20 08:05:53;;;;;;;10.77;6.20;;;31.20;72.40;;;;;;5042578;28;20229;-63
2023/07/20 08:08:20;;;;;;;13.20;6.17;;;31.20;70.50;;;;;;5044613;28;20551;-63
2023/07/20 08:10:53;;;;;;;9.67;6.00;;;31.20;70.40;;;;;;5042562;28;20195;-63
2023/07/20 08:13:20;;;;;;;14.00;6.13;;;31.20;71.40;;;;;;5042693;28;20515;-66
2023/07/20 08:15:50;;;;;;;9.53;5.70;;;31.20;71.80;;;;;;5046156;28;20252;-63
2023/07/20 08:18:17;;;;;;;7.40;5.50;;;31.30;70.50;;;;;;5048200;28;20264;-62
2023/07/20 08:20:45;;;;;;;13.80;6.33;;;31.30;69.80;;;;;;5037110;28;20227;-63
2023/07/20 08:23:13;;;;;;;10.60;6.13;;;31.50;70.30;;;;;;5037862;28;20273;-63
2023/07/20 08:25:43;;;;;;;12.90;6.10;;;31.50;69.70;;;;;;5041779;28;20250;-63
2023/07/20 08:28:14;;;;;;;9.03;6.07;;;31.60;71.00;;;;;;5041671;28;20596;-62
2023/07/20 08:30:42;;;;;;;14.93;6.30;;;31.60;71.80;;;;;;5043309;28;20210;-62
2023/07/20 08:33:13;;;;;;;10.20;5.57;;;31.80;71.50;;;;;;5047154;28;20582;-63
2023/07/20 08:35:41;;;;;;;11.33;6.47;;;32.10;71.00;;;;;;5045709;28;20602;-62
2023/07/20 08:38:08;;;;;;;12.27;6.47;;;32.20;70.70;;;;;;5035666;28;20198;-62
2023/07/20 08:40:42;;;;;;;11.80;5.90;;;32.30;70.10;;;;;;5043945;28;20217;-62
2023/07/20 08:43:16;;;;;;;13.70;6.83;;;32.40;69.70;;;;;;5038481;28;20203;-63
2023/07/20 08:45:46;;;;;;;9.07;6.37;;;32.50;69.20;;;;;;5043200;28;20244;-64
2023/07/20 08:48:14;;;;;;;13.50;6.53;;;32.60;69.00;;;;;;5042279;28;20261;-62
2023/07/20 08:50:45;;;;;;;15.40;7.87;;;32.70;68.90;;;;;;5040599;28;20629;-62
2023/07/20 08:53:13;;;;;;;9.77;6.27;;;32.90;68.50;;;;;;5043042;28;20217;-62
2023/07/20 08:55:44;;;;;;;13.00;7.13;;;32.90;68.10;;;;;;5049374;28;20581;-63
2023/07/20 08:58:14;;;;;;;12.33;6.73;;;33.00;67.60;;;;;;5039616;28;20203;-64
2023/07/20 09:00:41;;;;;;;17.30;8.07;;;33.10;67.60;;;;;;5038447;28;20331;-64
2023/07/20 09:03:12;;;;;;;11.03;7.23;;;33.10;67.60;;;;;;5040098;28;20229;-62
2023/07/20 09:05:41;;;;;;;11.47;6.50;;;33.20;67.40;;;;;;5042484;28;20195;-62
2023/07/20 09:08:07;;;;;;;13.77;7.73;;;33.20;67.30;;;;;;5044880;28;20207;-65
2023/07/20 09:10:34;;;;;;;13.67;7.40;;;33.20;66.30;;;;;;5037369;28;20199;-61
2023/07/20 09:13:01;;;;;;;8.20;6.83;;;33.10;67.10;;;;;;5045024;28;20514;-62
2023/07/20 09:15:29;;;;;;;13.40;6.80;;;33.00;65.90;;;;;;5043614;28;20194;-63
2023/07/20 09:17:56;;;;;;;11.07;7.37;;;32.90;66.40;;;;;;5041149;28;20557;-64
2023/07/20 09:20:23;;;;;;;12.43;7.00;;;32.80;66.60;;;;;;5038961;28;20226;-67
2023/07/20 09:22:52;;;;;;;12.23;7.13;;;32.80;67.60;;;;;;5042184;28;20194;-62
2023/07/20 09:25:20;;;;;;;13.13;7.23;;;32.90;67.50;;;;;;5040048;28;20221;-64
2023/07/20 09:27:49;;;;;;;12.30;7.57;;;32.90;67.50;;;;;;5038797;28;20301;-64
2023/07/20 09:30:18;;;;;;;13.03;7.00;;;33.00;67.60;;;;;;5036779;28;20195;-64
2023/07/20 09:32:50;;;;;;;17.13;8.60;;;33.10;67.10;;;;;;5035163;28;20207;-62
2023/07/20 09:35:21;;;;;;;14.43;7.00;;;33.20;66.30;;;;;;5037712;28;20711;-65
2023/07/20 09:37:59;;;;;;;10.90;6.90;;;33.10;65.90;;;;;;5040220;28;20603;-70
2023/07/20 09:40:29;;;;;;;15.03;7.60;;;33.10;66.30;;;;;;5039696;28;20225;-63
2023/07/20 09:43:04;;;;;;;8.60;7.07;;;33.10;66.30;;;;;;5040944;28;20194;-62
2023/07/20 09:45:36;;;;;;;14.33;7.30;;;33.20;66.80;;;;;;5044130;28;20217;-63
2023/07/20 09:48:06;;;;;;;15.83;7.10;;;33.30;66.60;;;;;;5040224;28;20195;-65
2023/07/20 09:50:42;;;;;;;9.57;7.03;;;33.50;66.60;;;;;;5038413;28;20282;-63
2023/07/20 09:53:15;;;;;;;12.17;7.23;;;33.50;64.90;;;;;;5039756;28;20203;-64
2023/07/20 09:55:44;;;;;;;11.60;7.20;;;33.40;66.90;;;;;;5045790;28;20211;-65
2023/07/20 09:58:11;;;;;;;18.20;8.00;;;33.50;65.40;;;;;;5036991;28;20280;-62
2023/07/20 10:00:40;;;;;;;15.47;8.67;;;33.40;64.40;;;;;;5039736;28;20560;-66
2023/07/20 10:03:12;;;;;;;13.47;8.67;;;33.40;65.20;;;;;;5044650;28;20268;-63
2023/07/20 10:05:46;;;;;;;12.97;7.30;;;33.30;65.60;;;;;;5039764;28;20213;-63
2023/07/20 10:08:16;;;;;;;15.57;7.67;;;33.40;66.50;;;;;;5035430;28;20278;-62
2023/07/20 10:10:48;;;;;;;17.50;7.80;;;33.50;66.90;;;;;;5036787;28;20282;-62
2023/07/20 10:13:25;;;;;;;12.50;7.83;;;33.60;66.40;;;;;;5041642;28;20260;-63
2023/07/20 10:16:03;;;;;;;13.70;7.80;;;33.70;66.10;;;;;;5047904;28;20596;-62
2023/07/20 10:18:45;;;;;;;14.17;7.80;;;33.80;65.50;;;;;;5041865;28;20693;-63
2023/07/20 10:21:12;;;;;;;14.03;8.20;;;33.80;66.40;;;;;;5040444;28;20560;-66
2023/07/20 10:23:42;;;;;;;18.07;8.00;;;33.80;65.50;;;;;;5040664;28;20218;-64
2023/07/20 10:26:10;;;;;;;15.70;8.63;;;33.90;65.10;;;;;;5037177;28;20316;-64
2023/07/20 10:28:38;;;;;;;15.57;8.13;;;34.00;65.40;;;;;;5041903;28;20298;-62
2023/07/20 10:31:08;;;;;;;14.57;8.03;;;34.10;65.00;;;;;;5040675;28;20210;-62
2023/07/20 10:33:37;;;;;;;10.90;8.30;;;34.10;65.10;;;;;;5038169;28;20659;-62
2023/07/20 10:36:06;;;;;;;11.30;8.10;;;34.10;65.60;;;;;;5040837;28;20199;-61
2023/07/20 10:38:53;;;;;;;11.55;7.65;;;34.20;65.60;;;;;;5038673;28;20289;-63
2023/07/20 10:41:24;;;;;;;13.30;7.73;;;34.30;63.90;;;;;;5041049;28;20211;-63
2023/07/20 10:44:23;;;;;;;14.37;7.33;;;34.40;63.50;;;;;;5040142;28;20651;-63
2023/07/20 10:46:58;;;;;;;16.90;8.23;;;34.40;63.70;;;;;;5040256;28;20211;-66
2023/07/20 10:49:26;;;;;;;13.07;7.57;;;34.50;64.00;;;;;;5037238;28;20190;-67
2023/07/20 10:52:01;;;;;;;10.97;7.37;;;34.70;64.80;;;;;;5042980;28;20213;-63
2023/07/20 10:54:28;;;;;;;10.30;8.20;;;34.80;63.70;;;;;;5037518;28;20199;-63
2023/07/20 10:56:57;;;;;;;12.70;7.07;;;34.90;63.60;;;;;;5041322;28;20273;-63
2023/07/20 10:59:24;;;;;;;11.93;7.70;;;35.00;63.50;;;;;;5039464;28;20210;-64
2023/07/20 11:01:56;;;;;;;15.70;7.53;;;35.00;62.90;;;;;;5037756;28;20697;-64
2023/07/20 11:04:53;;;;;;;16.13;8.67;;;35.00;63.30;;;;;;5037284;28;20274;-65
2023/07/20 11:07:46;;;;;;;13.38;8.15;;;35.10;63.50;;;;;;5049810;28;20208;-64
2023/07/20 11:10:14;;;;;;;14.00;7.87;;;35.00;62.20;;;;;;5044953;28;20213;-65
2023/07/20 11:13:17;;;;;;;12.75;6.90;;;35.00;62.10;;;;;;5042700;28;20195;-64
2023/07/20 11:15:46;;;;;;;22.07;8.03;;;34.90;62.10;;;;;;5042656;28;20503;-65
2023/07/20 11:18:16;;;;;;;11.57;7.93;;;34.90;61.50;;;;;;5045845;28;20446;-64
2023/07/20 11:20:50;;;;;;;12.43;7.67;;;34.80;62.00;;;;;;5044987;28;20664;-64
2023/07/20 11:23:19;;;;;;;13.43;7.10;;;34.90;62.90;;;;;;5043777;28;20226;-65
2023/07/20 11:25:46;;;;;;;10.60;6.63;;;34.90;61.70;;;;;;5040786;28;20235;-67
2023/07/20 11:28:13;;;;;;;15.70;8.05;;;35.00;61.30;;;;;;5042845;28;20199;-64
2023/07/20 11:30:40;;;;;;;13.70;7.50;;;35.00;61.00;;;;;;5041840;28;20289;-64
2023/07/20 11:33:11;;;;;;;12.85;7.45;;;35.10;61.10;;;;;;5044227;28;20643;-64
2023/07/20 11:35:50;;;;;;;12.50;7.28;;;35.10;62.40;;;;;;5042710;28;20433;-65
2023/07/20 11:38:20;;;;;;;13.95;7.25;;;35.20;61.60;;;;;;5044931;28;20210;-66
2023/07/20 11:40:47;;;;;;;13.43;7.55;;;35.30;59.70;;;;;;5041880;28;20263;-63
2023/07/20 11:43:15;;;;;;;13.35;7.00;;;35.30;60.20;;;;;;5041703;28;20245;-64
2023/07/20 11:45:45;;;;;;;8.48;6.80;;;35.40;61.20;;;;;;5046588;28;20191;-65
2023/07/20 11:48:16;;;;;;;9.82;6.85;;;35.40;61.70;;;;;;5044544;28;20203;-62
2023/07/20 11:50:44;;;;;;;13.33;8.00;;;35.40;61.10;;;;;;5043030;28;20230;-65
2023/07/20 11:53:11;;;;;;;13.60;7.88;;;35.30;60.70;;;;;;5042916;28;20217;-64
2023/07/20 11:55:40;;;;;;;17.43;8.00;;;35.10;61.50;;;;;;5046237;28;20697;-66
2023/07/20 11:58:09;;;;;;;8.98;7.10;;;34.80;61.50;;;;;;5047425;28;20213;-65
2023/07/20 12:00:39;;;;;;;16.00;6.78;;;34.60;61.90;;;;;;5038350;28;20633;-64
2023/07/20 12:03:07;;;;;;;13.35;7.65;;;34.50;61.50;;;;;;5046837;28;20207;-65
2023/07/20 12:05:34;;;;;;;10.83;6.93;;;34.60;62.00;;;;;;5037621;28;20281;-65
2023/07/20 12:08:21;;;;;;;9.88;6.68;;;34.70;62.60;;;;;;5043500;28;20268;-65
2023/07/20 12:10:49;;;;;;;15.47;7.07;;;34.90;60.50;;;;;;5043487;28;20217;-66
2023/07/20 12:13:16;;;;;;;11.55;7.65;;;35.00;60.10;;;;;;5043549;28;20207;-65
2023/07/20 12:15:43;;;;;;;11.38;6.85;;;34.90;59.70;;;;;;5039639;28;20245;-66
2023/07/20 12:18:10;;;;;;;21.30;6.97;;;34.90;60.40;;;;;;5047203;28;20268;-66
2023/07/20 12:20:38;;;;;;;9.63;7.20;;;34.90;60.80;;;;;;5044712;28;20684;-65
2023/07/20 12:23:11;;;;;;;12.18;6.95;;;35.00;61.10;;;;;;5043916;28;20217;-68
2023/07/20 12:25:42;;;;;;;10.65;7.22;;;35.10;62.10;;;;;;5045200;28;20242;-68
2023/07/20 12:28:17;;;;;;;11.70;6.93;;;35.10;59.20;;;;;;5043120;28;20203;-65
2023/07/20 12:30:45;;;;;;;12.53;7.23;;;35.10;59.60;;;;;;5042949;28;20281;-65
2023/07/20 12:33:15;;;;;;;11.83;7.30;;;35.00;61.10;;;;;;5041336;28;20199;-64
2023/07/20 12:35:45;;;;;;;8.77;6.47;;;35.10;60.20;;;;;;5038121;28;20191;-66
2023/07/20 12:38:13;;;;;;;13.83;6.73;;;35.10;60.10;;;;;;5046970;28;20286;-64
2023/07/20 12:40:40;;;;;;;15.57;7.05;;;35.00;60.40;;;;;;5042036;28;20198;-63
2023/07/20 12:43:07;;;;;;;12.65;7.25;;;35.10;60.50;;;;;;5038421;28;20191;-65
2023/07/20 12:45:35;;;;;;;9.90;6.33;;;35.10;60.70;;;;;;5041011;28;20203;-68
2023/07/20 12:48:03;;;;;;;10.43;6.87;;;35.10;59.30;;;;;;5039420;28;20202;-63
2023/07/20 12:50:29;;;;;;;10.10;6.80;;;35.00;60.00;;;;;;5042533;28;20210;-65